Bonriki International Airport
NGTA : now visible

Airfield :











YOU CAN JOIN US ON...

 
LOGIN :

Register | Disclaimer

   EN    FR    IT 

 









Legend :    VFR   Marginal VFR   IFR   Intensive IFR   Very Intensive IFR
Visi :
Ceiling :
>= 8 km
>= 3000ft
5 to 8 km
1000 to 3000 ft
1500m to 5 km
500 to 1000 ft
800 to 1500m
200 to 500 ft
< 800m
< 200 ft
Symbols :   Thunderstorms  Fog  Heavy snow  Heavy precipitations  Wind > 20 kt






- Airport Elevation : 9 ft
- IATA code : TRW


NGTA - Bonriki International

CURRENT METAR :
  • 191900Z 06007KT 9999 FEW020 29/26 Q1006

EXPIRED METARs :
  • 191800Z 06005KT 9999 FEW020 28/24 Q1006
  • 191700Z 06005KT 9999 FEW020 28/25 Q1005

TAF TAF NGTA
Valid from the 19 at 18:00 until the 20 at 18:00 UTC


191719Z 1918/2018 04008KT 9999 FEW019 SCT100
PROB30
TEMPO 2002/2014 5000 TSRA BKN015 FEW018CB



MET'MAP, your aeronautical weather chart ! - Copyright ORBIFLY December 2007 - Disclaimer

ORBIFLY MET'MAP TEAM :

Programming & Development : Alexandra Zaïnal
Concept & original design : Baudouin d'Aumeries
Assistance for programming : Marc-Olivier Méhu
Technical & hardware support : Manuel Goepfert

Contact : metmap@orbifly.com




SOURCES & CREDITS :

   NOAA       Earth
Advisory